sensor_id;sensor_type;location;lat;lon;timestamp;P1;durP1;ratioP1;P2;durP2;ratioP2
19343;SDS011;9808;52.402;16.678;2022-09-01T00:00:06;4.67;;;2.07;;
19343;SDS011;9808;52.402;16.678;2022-09-01T00:02:36;7.17;;;2.23;;
19343;SDS011;9808;52.402;16.678;2022-09-01T00:05:03;4.23;;;1.93;;
19343;SDS011;9808;52.402;16.678;2022-09-01T00:07:32;5.00;;;2.00;;
19343;SDS011;9808;52.402;16.678;2022-09-01T00:10:01;7.10;;;2.20;;
19343;SDS011;9808;52.402;16.678;2022-09-01T00:12:30;6.10;;;2.20;;
19343;SDS011;9808;52.402;16.678;2022-09-01T00:14:57;6.83;;;2.50;;
19343;SDS011;9808;52.402;16.678;2022-09-01T00:17:24;8.67;;;2.30;;
19343;SDS011;9808;52.402;16.678;2022-09-01T00:19:52;5.80;;;2.10;;
19343;SDS011;9808;52.402;16.678;2022-09-01T00:22:19;5.97;;;2.47;;
19343;SDS011;9808;52.402;16.678;2022-09-01T00:24:46;4.00;;;1.93;;
19343;SDS011;9808;52.402;16.678;2022-09-01T00:27:13;6.57;;;2.23;;
19343;SDS011;9808;52.402;16.678;2022-09-01T00:29:39;4.57;;;2.20;;
19343;SDS011;9808;52.402;16.678;2022-09-01T00:32:09;4.07;;;2.10;;
19343;SDS011;9808;52.402;16.678;2022-09-01T00:34:36;4.80;;;2.03;;
19343;SDS011;9808;52.402;16.678;2022-09-01T00:37:03;5.77;;;2.00;;
19343;SDS011;9808;52.402;16.678;2022-09-01T00:39:30;9.33;;;2.70;;
19343;SDS011;9808;52.402;16.678;2022-09-01T00:41:57;5.17;;;2.40;;
19343;SDS011;9808;52.402;16.678;2022-09-01T00:44:24;4.70;;;2.00;;
19343;SDS011;9808;52.402;16.678;2022-09-01T00:46:56;6.90;;;2.57;;
19343;SDS011;9808;52.402;16.678;2022-09-01T00:49:33;5.70;;;2.33;;
19343;SDS011;9808;52.402;16.678;2022-09-01T00:52:05;5.17;;;2.03;;
19343;SDS011;9808;52.402;16.678;2022-09-01T00:54:37;6.50;;;2.60;;
19343;SDS011;9808;52.402;16.678;2022-09-01T00:57:09;10.77;;;2.20;;
19343;SDS011;9808;52.402;16.678;2022-09-01T00:59:38;7.27;;;2.37;;
19343;SDS011;9808;52.402;16.678;2022-09-01T01:02:12;4.63;;;2.30;;
19343;SDS011;9808;52.402;16.678;2022-09-01T01:04:38;10.27;;;2.37;;
19343;SDS011;9808;52.402;16.678;2022-09-01T01:07:09;7.47;;;2.10;;
19343;SDS011;9808;52.402;16.678;2022-09-01T01:09:38;6.90;;;2.20;;
19343;SDS011;9808;52.402;16.678;2022-09-01T01:12:08;6.33;;;2.53;;
19343;SDS011;9808;52.402;16.678;2022-09-01T01:14:39;9.53;;;2.60;;
19343;SDS011;9808;52.402;16.678;2022-09-01T01:17:11;5.73;;;2.30;;
19343;SDS011;9808;52.402;16.678;2022-09-01T01:19:39;7.00;;;2.23;;
19343;SDS011;9808;52.402;16.678;2022-09-01T01:22:42;6.20;;;2.13;;
19343;SDS011;9808;52.402;16.678;2022-09-01T01:28:04;5.50;;;2.30;;
19343;SDS011;9808;52.402;16.678;2022-09-01T01:30:34;4.83;;;2.37;;
19343;SDS011;9808;52.402;16.678;2022-09-01T01:33:02;5.67;;;2.37;;
19343;SDS011;9808;52.402;16.678;2022-09-01T01:35:30;5.77;;;2.10;;
19343;SDS011;9808;52.402;16.678;2022-09-01T01:37:59;5.03;;;2.60;;
19343;SDS011;9808;52.402;16.678;2022-09-01T01:40:28;4.20;;;2.10;;
19343;SDS011;9808;52.402;16.678;2022-09-01T01:42:56;6.20;;;2.60;;
19343;SDS011;9808;52.402;16.678;2022-09-01T01:45:24;4.80;;;2.23;;
19343;SDS011;9808;52.402;16.678;2022-09-01T01:47:51;5.03;;;2.40;;
19343;SDS011;9808;52.402;16.678;2022-09-01T01:50:19;8.93;;;2.40;;
19343;SDS011;9808;52.402;16.678;2022-09-01T01:52:52;6.27;;;2.60;;
19343;SDS011;9808;52.402;16.678;2022-09-01T01:55:23;5.13;;;2.10;;
19343;SDS011;9808;52.402;16.678;2022-09-01T01:57:54;3.37;;;2.10;;
19343;SDS011;9808;52.402;16.678;2022-09-01T02:00:22;6.57;;;2.27;;
19343;SDS011;9808;52.402;16.678;2022-09-01T02:02:56;8.30;;;2.70;;
19343;SDS011;9808;52.402;16.678;2022-09-01T02:05:25;5.03;;;2.27;;
19343;SDS011;9808;52.402;16.678;2022-09-01T02:08:07;7.13;;;2.20;;
19343;SDS011;9808;52.402;16.678;2022-09-01T02:10:38;4.53;;;2.00;;
19343;SDS011;9808;52.402;16.678;2022-09-01T02:13:08;5.90;;;2.60;;
19343;SDS011;9808;52.402;16.678;2022-09-01T02:15:46;6.77;;;2.20;;
19343;SDS011;9808;52.402;16.678;2022-09-01T02:18:25;5.87;;;2.43;;
19343;SDS011;9808;52.402;16.678;2022-09-01T02:20:56;7.87;;;2.20;;
19343;SDS011;9808;52.402;16.678;2022-09-01T02:23:24;8.97;;;2.20;;
19343;SDS011;9808;52.402;16.678;2022-09-01T02:25:52;6.13;;;2.60;;
19343;SDS011;9808;52.402;16.678;2022-09-01T02:28:41;6.10;;;2.47;;
19343;SDS011;9808;52.402;16.678;2022-09-01T02:31:11;4.00;;;2.10;;
19343;SDS011;9808;52.402;16.678;2022-09-01T02:33:38;8.90;;;2.60;;
19343;SDS011;9808;52.402;16.678;2022-09-01T02:36:10;5.73;;;2.60;;
19343;SDS011;9808;52.402;16.678;2022-09-01T02:38:40;4.60;;;2.53;;
19343;SDS011;9808;52.402;16.678;2022-09-01T02:41:11;5.30;;;2.60;;
19343;SDS011;9808;52.402;16.678;2022-09-01T02:43:39;6.40;;;2.93;;
19343;SDS011;9808;52.402;16.678;2022-09-01T02:46:11;8.43;;;2.40;;
19343;SDS011;9808;52.402;16.678;2022-09-01T02:48:41;8.10;;;2.90;;
19343;SDS011;9808;52.402;16.678;2022-09-01T02:51:12;8.03;;;2.73;;
19343;SDS011;9808;52.402;16.678;2022-09-01T02:53:42;9.70;;;2.60;;
19343;SDS011;9808;52.402;16.678;2022-09-01T02:56:15;6.40;;;2.53;;
19343;SDS011;9808;52.402;16.678;2022-09-01T02:58:45;5.10;;;2.70;;
19343;SDS011;9808;52.402;16.678;2022-09-01T03:03:49;5.23;;;2.50;;
19343;SDS011;9808;52.402;16.678;2022-09-01T03:06:17;7.67;;;2.93;;
19343;SDS011;9808;52.402;16.678;2022-09-01T03:08:51;8.57;;;2.87;;
19343;SDS011;9808;52.402;16.678;2022-09-01T03:11:21;7.77;;;2.07;;
19343;SDS011;9808;52.402;16.678;2022-09-01T03:13:50;6.43;;;2.90;;
19343;SDS011;9808;52.402;16.678;2022-09-01T03:16:17;5.10;;;2.47;;
19343;SDS011;9808;52.402;16.678;2022-09-01T03:18:44;9.17;;;2.90;;
19343;SDS011;9808;52.402;16.678;2022-09-01T03:21:11;7.67;;;3.03;;
19343;SDS011;9808;52.402;16.678;2022-09-01T03:23:42;7.27;;;2.87;;
19343;SDS011;9808;52.402;16.678;2022-09-01T03:26:10;7.20;;;2.73;;
19343;SDS011;9808;52.402;16.678;2022-09-01T03:28:38;11.10;;;2.80;;
19343;SDS011;9808;52.402;16.678;2022-09-01T03:31:05;8.30;;;2.80;;
19343;SDS011;9808;52.402;16.678;2022-09-01T03:33:32;6.63;;;2.90;;
19343;SDS011;9808;52.402;16.678;2022-09-01T03:35:59;7.13;;;2.97;;
19343;SDS011;9808;52.402;16.678;2022-09-01T03:38:26;5.97;;;3.10;;
19343;SDS011;9808;52.402;16.678;2022-09-01T03:40:55;5.80;;;2.83;;
19343;SDS011;9808;52.402;16.678;2022-09-01T03:43:28;9.07;;;3.30;;
19343;SDS011;9808;52.402;16.678;2022-09-01T03:46:01;8.07;;;3.13;;
19343;SDS011;9808;52.402;16.678;2022-09-01T03:48:29;7.33;;;2.70;;
19343;SDS011;9808;52.402;16.678;2022-09-01T03:50:57;6.43;;;3.07;;
19343;SDS011;9808;52.402;16.678;2022-09-01T03:53:29;10.83;;;2.93;;
19343;SDS011;9808;52.402;16.678;2022-09-01T03:55:57;9.30;;;2.90;;
19343;SDS011;9808;52.402;16.678;2022-09-01T03:58:25;13.20;;;3.30;;
19343;SDS011;9808;52.402;16.678;2022-09-01T04:00:53;9.90;;;3.33;;
19343;SDS011;9808;52.402;16.678;2022-09-01T04:03:23;9.77;;;3.20;;
19343;SDS011;9808;52.402;16.678;2022-09-01T04:05:54;11.80;;;3.53;;
19343;SDS011;9808;52.402;16.678;2022-09-01T04:08:22;9.67;;;3.23;;
19343;SDS011;9808;52.402;16.678;2022-09-01T04:10:59;9.57;;;3.23;;
19343;SDS011;9808;52.402;16.678;2022-09-01T04:13:38;12.17;;;3.20;;
19343;SDS011;9808;52.402;16.678;2022-09-01T04:16:06;8.73;;;3.40;;
19343;SDS011;9808;52.402;16.678;2022-09-01T04:19:02;10.93;;;4.00;;
19343;SDS011;9808;52.402;16.678;2022-09-01T04:21:42;16.90;;;3.30;;
19343;SDS011;9808;52.402;16.678;2022-09-01T04:24:09;7.93;;;3.63;;
19343;SDS011;9808;52.402;16.678;2022-09-01T04:26:38;9.70;;;3.70;;
19343;SDS011;9808;52.402;16.678;2022-09-01T04:29:06;7.60;;;3.67;;
19343;SDS011;9808;52.402;16.678;2022-09-01T04:31:36;8.53;;;3.37;;
19343;SDS011;9808;52.402;16.678;2022-09-01T04:34:04;8.33;;;3.70;;
19343;SDS011;9808;52.402;16.678;2022-09-01T04:36:41;7.23;;;3.83;;
19343;SDS011;9808;52.402;16.678;2022-09-01T04:39:10;11.33;;;3.37;;
19343;SDS011;9808;52.402;16.678;2022-09-01T04:41:43;11.07;;;4.37;;
19343;SDS011;9808;52.402;16.678;2022-09-01T04:44:13;10.07;;;3.80;;
19343;SDS011;9808;52.402;16.678;2022-09-01T04:46:42;11.47;;;4.20;;
19343;SDS011;9808;52.402;16.678;2022-09-01T04:49:11;9.53;;;4.00;;
19343;SDS011;9808;52.402;16.678;2022-09-01T04:51:45;7.47;;;3.80;;
19343;SDS011;9808;52.402;16.678;2022-09-01T04:54:19;5.53;;;3.10;;
19343;SDS011;9808;52.402;16.678;2022-09-01T04:56:48;11.37;;;3.60;;
19343;SDS011;9808;52.402;16.678;2022-09-01T04:59:19;10.70;;;3.83;;
19343;SDS011;9808;52.402;16.678;2022-09-01T05:01:48;8.93;;;4.23;;
19343;SDS011;9808;52.402;16.678;2022-09-01T05:06:49;7.83;;;3.60;;
19343;SDS011;9808;52.402;16.678;2022-09-01T05:09:26;8.03;;;3.40;;
19343;SDS011;9808;52.402;16.678;2022-09-01T05:12:01;10.13;;;4.30;;
19343;SDS011;9808;52.402;16.678;2022-09-01T05:14:42;8.07;;;4.17;;
19343;SDS011;9808;52.402;16.678;2022-09-01T05:17:12;6.37;;;3.80;;
19343;SDS011;9808;52.402;16.678;2022-09-01T05:19:40;5.07;;;3.23;;
19343;SDS011;9808;52.402;16.678;2022-09-01T05:22:09;8.10;;;4.00;;
19343;SDS011;9808;52.402;16.678;2022-09-01T05:24:41;8.90;;;3.60;;
19343;SDS011;9808;52.402;16.678;2022-09-01T05:27:10;9.33;;;4.23;;
19343;SDS011;9808;52.402;16.678;2022-09-01T05:29:38;11.20;;;4.07;;
19343;SDS011;9808;52.402;16.678;2022-09-01T05:32:09;8.30;;;3.60;;
19343;SDS011;9808;52.402;16.678;2022-09-01T05:34:38;6.97;;;3.17;;
19343;SDS011;9808;52.402;16.678;2022-09-01T05:37:06;8.37;;;3.73;;
19343;SDS011;9808;52.402;16.678;2022-09-01T05:39:35;7.97;;;3.50;;
19343;SDS011;9808;52.402;16.678;2022-09-01T05:42:03;9.90;;;3.40;;
19343;SDS011;9808;52.402;16.678;2022-09-01T05:44:34;6.80;;;3.13;;
19343;SDS011;9808;52.402;16.678;2022-09-01T05:47:01;6.70;;;3.30;;
19343;SDS011;9808;52.402;16.678;2022-09-01T05:49:28;10.40;;;3.13;;
19343;SDS011;9808;52.402;16.678;2022-09-01T05:51:58;10.70;;;3.37;;
19343;SDS011;9808;52.402;16.678;2022-09-01T05:54:25;9.37;;;3.80;;
19343;SDS011;9808;52.402;16.678;2022-09-01T05:56:53;9.07;;;3.93;;
19343;SDS011;9808;52.402;16.678;2022-09-01T05:59:38;7.80;;;3.40;;
19343;SDS011;9808;52.402;16.678;2022-09-01T06:02:06;11.10;;;3.97;;
19343;SDS011;9808;52.402;16.678;2022-09-01T06:04:36;7.00;;;3.17;;
19343;SDS011;9808;52.402;16.678;2022-09-01T06:07:07;10.63;;;3.40;;
19343;SDS011;9808;52.402;16.678;2022-09-01T06:09:43;9.03;;;3.23;;
19343;SDS011;9808;52.402;16.678;2022-09-01T06:12:15;9.53;;;3.60;;
19343;SDS011;9808;52.402;16.678;2022-09-01T06:14:44;8.07;;;2.70;;
19343;SDS011;9808;52.402;16.678;2022-09-01T06:17:12;12.73;;;3.40;;
19343;SDS011;9808;52.402;16.678;2022-09-01T06:19:42;12.07;;;2.97;;
19343;SDS011;9808;52.402;16.678;2022-09-01T06:22:09;7.30;;;2.57;;
19343;SDS011;9808;52.402;16.678;2022-09-01T06:24:37;5.23;;;2.20;;
19343;SDS011;9808;52.402;16.678;2022-09-01T06:27:06;6.80;;;2.20;;
19343;SDS011;9808;52.402;16.678;2022-09-01T06:29:36;5.27;;;2.10;;
19343;SDS011;9808;52.402;16.678;2022-09-01T06:32:07;5.40;;;1.67;;
19343;SDS011;9808;52.402;16.678;2022-09-01T06:34:38;6.00;;;1.50;;
19343;SDS011;9808;52.402;16.678;2022-09-01T06:37:08;4.93;;;1.83;;
19343;SDS011;9808;52.402;16.678;2022-09-01T06:39:36;4.05;;;1.67;;
19343;SDS011;9808;52.402;16.678;2022-09-01T06:42:03;6.68;;;1.70;;
19343;SDS011;9808;52.402;16.678;2022-09-01T06:44:31;12.15;;;2.00;;
19343;SDS011;9808;52.402;16.678;2022-09-01T06:47:01;3.50;;;1.30;;
19343;SDS011;9808;52.402;16.678;2022-09-01T06:49:30;5.00;;;1.35;;
19343;SDS011;9808;52.402;16.678;2022-09-01T06:52:03;2.45;;;1.00;;
19343;SDS011;9808;52.402;16.678;2022-09-01T06:54:31;3.90;;;1.15;;
19343;SDS011;9808;52.402;16.678;2022-09-01T06:57:01;1.90;;;0.80;;
19343;SDS011;9808;52.402;16.678;2022-09-01T06:59:49;6.50;;;1.95;;
19343;SDS011;9808;52.402;16.678;2022-09-01T07:02:19;2.97;;;0.70;;
19343;SDS011;9808;52.402;16.678;2022-09-01T07:04:52;5.63;;;0.63;;
19343;SDS011;9808;52.402;16.678;2022-09-01T07:07:19;1.60;;;0.80;;
19343;SDS011;9808;52.402;16.678;2022-09-01T07:13:35;2.38;;;0.52;;
19343;SDS011;9808;52.402;16.678;2022-09-01T07:16:20;2.22;;;0.70;;
19343;SDS011;9808;52.402;16.678;2022-09-01T07:18:58;2.95;;;0.60;;
19343;SDS011;9808;52.402;16.678;2022-09-01T07:21:27;7.70;;;1.05;;
19343;SDS011;9808;52.402;16.678;2022-09-01T07:24:17;3.50;;;0.90;;
19343;SDS011;9808;52.402;16.678;2022-09-01T07:26:46;4.97;;;0.60;;
19343;SDS011;9808;52.402;16.678;2022-09-01T07:29:17;2.15;;;0.60;;
19343;SDS011;9808;52.402;16.678;2022-09-01T07:31:46;4.13;;;0.75;;
19343;SDS011;9808;52.402;16.678;2022-09-01T07:34:15;2.08;;;0.77;;
19343;SDS011;9808;52.402;16.678;2022-09-01T07:37:02;3.92;;;0.80;;
19343;SDS011;9808;52.402;16.678;2022-09-01T07:39:48;3.80;;;0.80;;
19343;SDS011;9808;52.402;16.678;2022-09-01T07:42:17;1.35;;;0.60;;
19343;SDS011;9808;52.402;16.678;2022-09-01T07:45:06;3.20;;;0.80;;
19343;SDS011;9808;52.402;16.678;2022-09-01T07:47:53;4.75;;;0.57;;
19343;SDS011;9808;52.402;16.678;2022-09-01T07:50:21;4.07;;;0.70;;
19343;SDS011;9808;52.402;16.678;2022-09-01T07:53:05;4.68;;;0.70;;
19343;SDS011;9808;52.402;16.678;2022-09-01T07:55:33;2.85;;;0.55;;
19343;SDS011;9808;52.402;16.678;2022-09-01T07:58:00;4.43;;;0.88;;
19343;SDS011;9808;52.402;16.678;2022-09-01T08:00:27;7.70;;;1.20;;
19343;SDS011;9808;52.402;16.678;2022-09-01T08:02:56;2.67;;;0.80;;
19343;SDS011;9808;52.402;16.678;2022-09-01T08:05:23;2.72;;;0.70;;
19343;SDS011;9808;52.402;16.678;2022-09-01T08:07:52;2.60;;;0.68;;
19343;SDS011;9808;52.402;16.678;2022-09-01T08:10:19;3.45;;;0.90;;
19343;SDS011;9808;52.402;16.678;2022-09-01T08:12:47;10.77;;;1.52;;
19343;SDS011;9808;52.402;16.678;2022-09-01T08:15:21;4.18;;;0.77;;
19343;SDS011;9808;52.402;16.678;2022-09-01T08:18:10;1.60;;;0.43;;
19343;SDS011;9808;52.402;16.678;2022-09-01T08:20:40;1.90;;;0.60;;
19343;SDS011;9808;52.402;16.678;2022-09-01T08:23:11;4.28;;;0.90;;
19343;SDS011;9808;52.402;16.678;2022-09-01T08:25:41;3.53;;;0.52;;
19343;SDS011;9808;52.402;16.678;2022-09-01T08:28:11;1.38;;;0.70;;
19343;SDS011;9808;52.402;16.678;2022-09-01T08:30:39;2.72;;;0.70;;
19343;SDS011;9808;52.402;16.678;2022-09-01T08:33:17;6.53;;;0.60;;
19343;SDS011;9808;52.402;16.678;2022-09-01T08:35:45;0.70;;;0.40;;
19343;SDS011;9808;52.402;16.678;2022-09-01T08:38:13;2.58;;;0.65;;
19343;SDS011;9808;52.402;16.678;2022-09-01T08:40:40;2.40;;;0.35;;
19343;SDS011;9808;52.402;16.678;2022-09-01T08:43:15;0.98;;;0.40;;
19343;SDS011;9808;52.402;16.678;2022-09-01T08:45:54;1.38;;;0.43;;
19343;SDS011;9808;52.402;16.678;2022-09-01T08:48:35;3.35;;;0.52;;
19343;SDS011;9808;52.402;16.678;2022-09-01T08:51:38;1.38;;;0.30;;
19343;SDS011;9808;52.402;16.678;2022-09-01T08:57:00;4.28;;;0.80;;
19343;SDS011;9808;52.402;16.678;2022-09-01T08:59:30;1.67;;;0.50;;
19343;SDS011;9808;52.402;16.678;2022-09-01T09:04:41;2.83;;;0.70;;
19343;SDS011;9808;52.402;16.678;2022-09-01T09:13:02;3.38;;;0.50;;
19343;SDS011;9808;52.402;16.678;2022-09-01T09:21:13;3.17;;;0.57;;
19343;SDS011;9808;52.402;16.678;2022-09-01T09:23:49;1.08;;;0.50;;
19343;SDS011;9808;52.402;16.678;2022-09-01T09:26:34;1.80;;;0.43;;
19343;SDS011;9808;52.402;16.678;2022-09-01T09:29:08;1.83;;;0.47;;
19343;SDS011;9808;52.402;16.678;2022-09-01T09:31:36;1.38;;;0.40;;
19343;SDS011;9808;52.402;16.678;2022-09-01T09:34:31;1.70;;;0.38;;
19343;SDS011;9808;52.402;16.678;2022-09-01T09:39:44;1.73;;;0.65;;
19343;SDS011;9808;52.402;16.678;2022-09-01T09:42:27;4.55;;;0.60;;
19343;SDS011;9808;52.402;16.678;2022-09-01T09:45:00;3.20;;;0.40;;
19343;SDS011;9808;52.402;16.678;2022-09-01T09:47:43;1.70;;;0.40;;
19343;SDS011;9808;52.402;16.678;2022-09-01T09:52:51;6.20;;;0.50;;
19343;SDS011;9808;52.402;16.678;2022-09-01T09:55:26;1.45;;;0.43;;
19343;SDS011;9808;52.402;16.678;2022-09-01T09:57:58;1.95;;;0.43;;
19343;SDS011;9808;52.402;16.678;2022-09-01T10:00:34;7.65;;;0.70;;
19343;SDS011;9808;52.402;16.678;2022-09-01T10:08:36;1.00;;;0.50;;
19343;SDS011;9808;52.402;16.678;2022-09-01T10:11:23;1.00;;;0.50;;
19343;SDS011;9808;52.402;16.678;2022-09-01T10:14:00;3.10;;;0.60;;
19343;SDS011;9808;52.402;16.678;2022-09-01T10:16:30;3.42;;;0.47;;
19343;SDS011;9808;52.402;16.678;2022-09-01T10:18:59;1.58;;;0.50;;
19343;SDS011;9808;52.402;16.678;2022-09-01T10:21:30;4.47;;;0.50;;
19343;SDS011;9808;52.402;16.678;2022-09-01T10:24:01;1.27;;;0.30;;
19343;SDS011;9808;52.402;16.678;2022-09-01T10:26:47;1.95;;;0.40;;
19343;SDS011;9808;52.402;16.678;2022-09-01T10:32:00;2.28;;;0.50;;
19343;SDS011;9808;52.402;16.678;2022-09-01T10:34:53;1.50;;;0.50;;
19343;SDS011;9808;52.402;16.678;2022-09-01T10:37:24;2.30;;;0.40;;
19343;SDS011;9808;52.402;16.678;2022-09-01T10:46:07;3.00;;;0.57;;
19343;SDS011;9808;52.402;16.678;2022-09-01T10:48:43;9.63;;;1.23;;
19343;SDS011;9808;52.402;16.678;2022-09-01T10:54:01;10.80;;;0.50;;
19343;SDS011;9808;52.402;16.678;2022-09-01T11:07:31;2.30;;;0.32;;
19343;SDS011;9808;52.402;16.678;2022-09-01T11:10:29;2.65;;;0.47;;
19343;SDS011;9808;52.402;16.678;2022-09-01T11:13:08;0.43;;;0.32;;
19343;SDS011;9808;52.402;16.678;2022-09-01T11:15:41;1.08;;;0.50;;
19343;SDS011;9808;52.402;16.678;2022-09-01T11:18:14;0.38;;;0.20;;
19343;SDS011;9808;52.402;16.678;2022-09-01T11:20:44;1.05;;;0.45;;
19343;SDS011;9808;52.402;16.678;2022-09-01T11:23:19;3.13;;;0.22;;
19343;SDS011;9808;52.402;16.678;2022-09-01T11:26:42;1.98;;;0.40;;
19343;SDS011;9808;52.402;16.678;2022-09-01T11:28:59;4.43;;;0.73;;
19343;SDS011;9808;52.402;16.678;2022-09-01T11:31:30;1.27;;;0.40;;
19343;SDS011;9808;52.402;16.678;2022-09-01T11:34:16;2.70;;;0.40;;
19343;SDS011;9808;52.402;16.678;2022-09-01T11:47:35;1.67;;;0.40;;
19343;SDS011;9808;52.402;16.678;2022-09-01T11:55:43;1.38;;;0.40;;
19343;SDS011;9808;52.402;16.678;2022-09-01T11:58:13;6.40;;;0.68;;
19343;SDS011;9808;52.402;16.678;2022-09-01T12:00:54;3.50;;;0.50;;
19343;SDS011;9808;52.402;16.678;2022-09-01T12:03:24;3.75;;;0.50;;
19343;SDS011;9808;52.402;16.678;2022-09-01T12:06:03;7.05;;;0.60;;
19343;SDS011;9808;52.402;16.678;2022-09-01T12:08:34;8.20;;;0.80;;
19343;SDS011;9808;52.402;16.678;2022-09-01T12:11:11;1.42;;;0.30;;
19343;SDS011;9808;52.402;16.678;2022-09-01T12:14:03;3.10;;;0.40;;
19343;SDS011;9808;52.402;16.678;2022-09-01T12:16:38;0.98;;;0.40;;
19343;SDS011;9808;52.402;16.678;2022-09-01T12:19:07;1.05;;;0.32;;
19343;SDS011;9808;52.402;16.678;2022-09-01T12:21:54;4.95;;;0.50;;
19343;SDS011;9808;52.402;16.678;2022-09-01T12:24:33;2.17;;;0.52;;
19343;SDS011;9808;52.402;16.678;2022-09-01T12:27:02;1.23;;;0.50;;
19343;SDS011;9808;52.402;16.678;2022-09-01T12:29:30;1.02;;;0.32;;
19343;SDS011;9808;52.402;16.678;2022-09-01T12:31:58;1.30;;;0.30;;
19343;SDS011;9808;52.402;16.678;2022-09-01T12:34:30;0.73;;;0.30;;
19343;SDS011;9808;52.402;16.678;2022-09-01T12:37:11;2.53;;;0.60;;
19343;SDS011;9808;52.402;16.678;2022-09-01T12:39:50;3.00;;;0.60;;
19343;SDS011;9808;52.402;16.678;2022-09-01T12:44:47;2.35;;;0.73;;
19343;SDS011;9808;52.402;16.678;2022-09-01T12:50:06;7.70;;;0.50;;
19343;SDS011;9808;52.402;16.678;2022-09-01T12:55:28;2.10;;;0.45;;
19343;SDS011;9808;52.402;16.678;2022-09-01T12:58:19;3.15;;;0.40;;
19343;SDS011;9808;52.402;16.678;2022-09-01T13:00:54;2.65;;;0.43;;
19343;SDS011;9808;52.402;16.678;2022-09-01T13:03:24;2.65;;;0.50;;
19343;SDS011;9808;52.402;16.678;2022-09-01T13:05:53;5.88;;;0.82;;
19343;SDS011;9808;52.402;16.678;2022-09-01T13:08:22;3.78;;;0.88;;
19343;SDS011;9808;52.402;16.678;2022-09-01T13:11:03;1.48;;;0.50;;
19343;SDS011;9808;52.402;16.678;2022-09-01T13:13:32;1.33;;;0.47;;
19343;SDS011;9808;52.402;16.678;2022-09-01T13:16:00;1.73;;;0.47;;
19343;SDS011;9808;52.402;16.678;2022-09-01T13:18:33;3.30;;;0.68;;
19343;SDS011;9808;52.402;16.678;2022-09-01T13:21:20;4.32;;;0.60;;
19343;SDS011;9808;52.402;16.678;2022-09-01T13:23:47;6.30;;;0.85;;
19343;SDS011;9808;52.402;16.678;2022-09-01T13:26:16;2.28;;;0.60;;
19343;SDS011;9808;52.402;16.678;2022-09-01T13:28:43;1.88;;;0.40;;
19343;SDS011;9808;52.402;16.678;2022-09-01T13:31:11;1.20;;;0.35;;
19343;SDS011;9808;52.402;16.678;2022-09-01T13:33:54;1.80;;;0.40;;
19343;SDS011;9808;52.402;16.678;2022-09-01T13:36:42;1.95;;;0.40;;
19343;SDS011;9808;52.402;16.678;2022-09-01T13:39:15;3.75;;;0.65;;
19343;SDS011;9808;52.402;16.678;2022-09-01T13:41:44;1.20;;;0.50;;
19343;SDS011;9808;52.402;16.678;2022-09-01T13:44:12;0.70;;;0.50;;
19343;SDS011;9808;52.402;16.678;2022-09-01T13:46:39;3.72;;;1.02;;
19343;SDS011;9808;52.402;16.678;2022-09-01T13:49:26;5.40;;;0.60;;
19343;SDS011;9808;52.402;16.678;2022-09-01T13:52:13;1.67;;;0.60;;
19343;SDS011;9808;52.402;16.678;2022-09-01T13:54:40;3.30;;;0.47;;
19343;SDS011;9808;52.402;16.678;2022-09-01T13:57:09;5.22;;;0.68;;
19343;SDS011;9808;52.402;16.678;2022-09-01T13:59:37;0.55;;;0.43;;
19343;SDS011;9808;52.402;16.678;2022-09-01T14:02:04;3.75;;;0.77;;
19343;SDS011;9808;52.402;16.678;2022-09-01T14:04:31;5.32;;;0.73;;
19343;SDS011;9808;52.402;16.678;2022-09-01T14:06:58;3.00;;;0.60;;
19343;SDS011;9808;52.402;16.678;2022-09-01T14:09:25;1.80;;;0.57;;
19343;SDS011;9808;52.402;16.678;2022-09-01T14:11:52;2.55;;;0.70;;
19343;SDS011;9808;52.402;16.678;2022-09-01T14:14:20;2.75;;;0.70;;
19343;SDS011;9808;52.402;16.678;2022-09-01T14:16:47;4.35;;;0.93;;
19343;SDS011;9808;52.402;16.678;2022-09-01T14:19:14;3.63;;;0.65;;
19343;SDS011;9808;52.402;16.678;2022-09-01T14:21:41;2.33;;;0.63;;
19343;SDS011;9808;52.402;16.678;2022-09-01T14:24:08;2.75;;;0.68;;
19343;SDS011;9808;52.402;16.678;2022-09-01T14:26:34;2.97;;;1.05;;
19343;SDS011;9808;52.402;16.678;2022-09-01T14:29:01;2.55;;;0.68;;
19343;SDS011;9808;52.402;16.678;2022-09-01T14:31:28;10.48;;;0.93;;
19343;SDS011;9808;52.402;16.678;2022-09-01T14:33:57;5.40;;;0.60;;
19343;SDS011;9808;52.402;16.678;2022-09-01T14:36:25;4.18;;;0.70;;
19343;SDS011;9808;52.402;16.678;2022-09-01T14:38:52;6.32;;;0.80;;
19343;SDS011;9808;52.402;16.678;2022-09-01T14:41:21;7.95;;;0.95;;
19343;SDS011;9808;52.402;16.678;2022-09-01T14:43:52;1.75;;;0.50;;
19343;SDS011;9808;52.402;16.678;2022-09-01T14:46:23;9.65;;;0.95;;
19343;SDS011;9808;52.402;16.678;2022-09-01T14:48:51;10.63;;;1.08;;
19343;SDS011;9808;52.402;16.678;2022-09-01T14:51:28;9.45;;;0.93;;
19343;SDS011;9808;52.402;16.678;2022-09-01T14:54:18;5.60;;;0.95;;
19343;SDS011;9808;52.402;16.678;2022-09-01T14:56:44;3.85;;;0.70;;
19343;SDS011;9808;52.402;16.678;2022-09-01T14:59:32;3.35;;;0.70;;
19343;SDS011;9808;52.402;16.678;2022-09-01T15:01:59;3.63;;;0.90;;
19343;SDS011;9808;52.402;16.678;2022-09-01T15:04:26;6.18;;;0.90;;
19343;SDS011;9808;52.402;16.678;2022-09-01T15:06:54;9.38;;;1.00;;
19343;SDS011;9808;52.402;16.678;2022-09-01T15:09:21;5.88;;;0.60;;
19343;SDS011;9808;52.402;16.678;2022-09-01T15:11:48;1.30;;;0.60;;
19343;SDS011;9808;52.402;16.678;2022-09-01T15:14:15;9.82;;;0.90;;
19343;SDS011;9808;52.402;16.678;2022-09-01T15:16:42;1.33;;;0.63;;
19343;SDS011;9808;52.402;16.678;2022-09-01T15:19:10;6.85;;;0.80;;
19343;SDS011;9808;52.402;16.678;2022-09-01T15:21:39;3.50;;;0.65;;
19343;SDS011;9808;52.402;16.678;2022-09-01T15:24:08;3.90;;;0.50;;
19343;SDS011;9808;52.402;16.678;2022-09-01T15:26:37;1.15;;;0.60;;
19343;SDS011;9808;52.402;16.678;2022-09-01T15:29:06;2.15;;;0.52;;
19343;SDS011;9808;52.402;16.678;2022-09-01T15:31:35;2.08;;;0.47;;
19343;SDS011;9808;52.402;16.678;2022-09-01T15:34:02;5.47;;;0.93;;
19343;SDS011;9808;52.402;16.678;2022-09-01T15:36:30;5.47;;;0.70;;
19343;SDS011;9808;52.402;16.678;2022-09-01T15:39:05;0.93;;;0.40;;
19343;SDS011;9808;52.402;16.678;2022-09-01T15:41:33;3.55;;;0.52;;
19343;SDS011;9808;52.402;16.678;2022-09-01T15:44:01;1.05;;;0.40;;
19343;SDS011;9808;52.402;16.678;2022-09-01T15:46:33;2.50;;;0.40;;
19343;SDS011;9808;52.402;16.678;2022-09-01T15:49:05;4.05;;;0.80;;
19343;SDS011;9808;52.402;16.678;2022-09-01T15:51:35;2.17;;;0.50;;
19343;SDS011;9808;52.402;16.678;2022-09-01T15:54:05;3.63;;;0.77;;
19343;SDS011;9808;52.402;16.678;2022-09-01T15:56:34;4.43;;;1.10;;
19343;SDS011;9808;52.402;16.678;2022-09-01T15:59:01;3.72;;;0.90;;
19343;SDS011;9808;52.402;16.678;2022-09-01T16:01:31;1.42;;;0.63;;
19343;SDS011;9808;52.402;16.678;2022-09-01T16:04:01;3.42;;;0.90;;
19343;SDS011;9808;52.402;16.678;2022-09-01T16:06:30;2.55;;;0.82;;
19343;SDS011;9808;52.402;16.678;2022-09-01T16:08:57;5.55;;;1.30;;
19343;SDS011;9808;52.402;16.678;2022-09-01T16:11:25;2.55;;;0.75;;
19343;SDS011;9808;52.402;16.678;2022-09-01T16:13:55;5.60;;;0.93;;
19343;SDS011;9808;52.402;16.678;2022-09-01T16:19:05;1.70;;;0.68;;
19343;SDS011;9808;52.402;16.678;2022-09-01T16:21:50;3.75;;;0.90;;
19343;SDS011;9808;52.402;16.678;2022-09-01T16:24:46;2.75;;;0.82;;
19343;SDS011;9808;52.402;16.678;2022-09-01T16:27:19;5.63;;;1.35;;
19343;SDS011;9808;52.402;16.678;2022-09-01T16:29:52;14.45;;;5.38;;
19343;SDS011;9808;52.402;16.678;2022-09-01T16:32:21;19.08;;;7.25;;
19343;SDS011;9808;52.402;16.678;2022-09-01T16:34:49;5.43;;;2.00;;
19343;SDS011;9808;52.402;16.678;2022-09-01T16:42:42;2.00;;;0.80;;
19343;SDS011;9808;52.402;16.678;2022-09-01T16:48:17;2.28;;;0.65;;
19343;SDS011;9808;52.402;16.678;2022-09-01T16:51:00;3.22;;;0.90;;